createdAt,value
2023-02-09T00:00:54.007Z,57.90
2023-02-09T00:01:54.054Z,57.93
2023-02-09T00:02:53.965Z,58.00
2023-02-09T00:03:54.019Z,57.93
2023-02-09T00:04:53.952Z,58.13
2023-02-09T00:05:53.930Z,58.03
2023-02-09T00:06:53.929Z,58.13
2023-02-09T00:07:53.912Z,57.93
2023-02-09T00:08:53.911Z,58.03
2023-02-09T00:09:53.902Z,58.03
2023-02-09T00:10:53.896Z,58.13
2023-02-09T00:11:53.868Z,58.13
2023-02-09T00:12:53.861Z,58.13
2023-02-09T00:13:53.853Z,58.13
2023-02-09T00:14:53.844Z,58.13
2023-02-09T00:15:53.834Z,58.34
2023-02-09T00:16:53.887Z,58.44
2023-02-09T00:17:53.811Z,58.34
2023-02-09T00:18:53.798Z,58.44
2023-02-09T00:19:53.792Z,58.44
2023-02-09T00:20:53.774Z,58.34
2023-02-09T00:21:53.758Z,58.34
2023-02-09T00:22:53.761Z,58.44
2023-02-09T00:23:53.741Z,58.44
2023-02-09T00:24:55.086Z,58.44
2023-02-09T00:25:53.719Z,58.54
2023-02-09T00:26:53.706Z,58.74
2023-02-09T00:27:53.709Z,58.64
2023-02-09T00:28:53.686Z,58.54
2023-02-09T00:29:53.699Z,58.54
2023-02-09T00:30:53.730Z,58.44
2023-02-09T00:31:53.731Z,58.54
2023-02-09T00:32:53.639Z,58.64
2023-02-09T00:33:53.641Z,58.64
2023-02-09T00:34:53.619Z,58.54
2023-02-09T00:35:53.603Z,58.84
2023-02-09T00:36:53.606Z,58.64
2023-02-09T00:37:53.579Z,58.54
2023-02-09T00:38:53.584Z,58.54
2023-02-09T00:39:54.394Z,58.44
2023-02-09T00:40:53.561Z,58.54
2023-02-09T00:41:53.532Z,58.64
2023-02-09T00:42:53.536Z,58.94
2023-02-09T00:43:53.523Z,58.84
2023-02-09T00:44:53.517Z,58.74
2023-02-09T00:45:53.519Z,58.54
2023-02-09T00:46:53.496Z,58.44
2023-02-09T00:47:53.488Z,58.64
2023-02-09T00:48:53.462Z,58.44
2023-02-09T00:49:53.450Z,58.23
2023-02-09T00:50:53.493Z,58.54
2023-02-09T00:51:53.437Z,58.34
2023-02-09T00:52:53.432Z,58.34
2023-02-09T00:53:53.404Z,58.44
2023-02-09T00:54:53.407Z,58.44
2023-02-09T00:55:53.387Z,58.34
2023-02-09T00:56:53.525Z,58.34
2023-02-09T00:57:53.375Z,58.23
2023-02-09T00:58:53.367Z,58.44
2023-02-09T00:59:53.372Z,58.23
2023-02-09T01:00:53.352Z,58.03
2023-02-09T01:01:53.336Z,58.03
2023-02-09T01:02:53.319Z,58.23
2023-02-09T01:03:53.308Z,58.03
2023-02-09T01:04:53.326Z,58.13
2023-02-09T01:05:53.279Z,57.62
2023-02-09T01:06:53.280Z,58.03
2023-02-09T01:07:53.249Z,58.44
2023-02-09T01:08:53.245Z,58.13
2023-02-09T01:09:53.234Z,57.53
2023-02-09T01:10:53.224Z,58.23
2023-02-09T01:11:53.228Z,58.54
2023-02-09T01:12:53.209Z,58.44
2023-02-09T01:13:53.184Z,58.54
2023-02-09T01:14:53.193Z,58.54
2023-02-09T01:15:53.172Z,58.44
2023-02-09T01:16:53.191Z,58.44
2023-02-09T01:17:53.145Z,58.23
2023-02-09T01:18:53.141Z,58.54
2023-02-09T01:19:53.130Z,58.54
2023-02-09T01:20:53.129Z,58.64
2023-02-09T01:21:53.098Z,58.23
2023-02-09T01:22:53.094Z,58.44
2023-02-09T01:23:53.099Z,58.34
2023-02-09T01:24:53.079Z,58.13
2023-02-09T01:25:53.061Z,58.13
2023-02-09T01:26:53.067Z,58.54
2023-02-09T01:27:53.115Z,58.44
2023-02-09T01:28:53.030Z,58.34
2023-02-09T01:29:53.032Z,58.34
2023-02-09T01:30:53.112Z,58.44
2023-02-09T01:31:53.130Z,58.54
2023-02-09T01:32:52.983Z,58.54
2023-02-09T01:33:52.974Z,58.23
2023-02-09T01:34:52.994Z,58.23
2023-02-09T01:35:52.953Z,58.23
2023-02-09T01:36:52.964Z,58.23
2023-02-09T01:37:52.922Z,58.23
2023-02-09T01:38:52.919Z,58.13
2023-02-09T01:39:52.903Z,58.44
2023-02-09T01:40:52.920Z,58.23
2023-02-09T01:41:52.884Z,58.34
2023-02-09T01:42:52.884Z,58.23
2023-02-09T01:43:52.881Z,58.03
2023-02-09T01:44:52.926Z,58.13
2023-02-09T01:45:52.874Z,57.93
2023-02-09T01:46:52.866Z,58.13
2023-02-09T01:47:52.816Z,58.13
2023-02-09T01:48:52.812Z,58.03
2023-02-09T01:49:52.790Z,58.13
2023-02-09T01:50:52.796Z,58.13
2023-02-09T01:51:52.774Z,58.23
2023-02-09T01:52:52.798Z,58.13
2023-02-09T01:53:52.754Z,58.03
2023-02-09T01:54:52.742Z,58.23
2023-02-09T01:55:52.739Z,58.03
2023-02-09T01:56:52.730Z,58.34
2023-02-09T01:57:52.728Z,58.23
2023-02-09T01:58:52.710Z,58.13
2023-02-09T01:59:52.694Z,58.03
2023-02-09T02:00:52.693Z,58.34
2023-02-09T02:01:52.677Z,58.54
2023-02-09T02:02:52.724Z,58.34
2023-02-09T02:03:52.637Z,58.34
2023-02-09T02:04:52.640Z,58.44
2023-02-09T02:05:52.621Z,58.34
2023-02-09T02:06:52.616Z,58.44
2023-02-09T02:07:52.604Z,58.64
2023-02-09T02:08:52.591Z,58.74
2023-02-09T02:09:52.592Z,58.84
2023-02-09T02:10:52.586Z,58.54
2023-02-09T02:11:52.548Z,58.74
2023-02-09T02:12:52.552Z,58.64
2023-02-09T02:13:52.542Z,58.64
2023-02-09T02:14:52.521Z,58.74
2023-02-09T02:15:52.581Z,58.74
2023-02-09T02:16:52.494Z,58.74
2023-02-09T02:17:52.477Z,58.64
2023-02-09T02:18:52.499Z,58.67
2023-02-09T02:19:52.460Z,58.67
2023-02-09T02:20:52.448Z,58.56
2023-02-09T02:21:52.438Z,58.56
2023-02-09T02:22:52.429Z,58.56
2023-02-09T02:23:52.413Z,58.87
2023-02-09T02:24:52.411Z,58.97
2023-02-09T02:25:52.381Z,58.67
2023-02-09T02:26:52.379Z,58.67
2023-02-09T02:27:52.388Z,58.76
2023-02-09T02:28:52.366Z,58.67
2023-02-09T02:29:52.337Z,58.76
2023-02-09T02:30:52.445Z,58.87
2023-02-09T02:31:52.380Z,58.67
2023-02-09T02:32:52.317Z,58.87
2023-02-09T02:33:52.312Z,58.87
2023-02-09T02:34:52.288Z,58.67
2023-02-09T02:35:52.275Z,58.67
2023-02-09T02:36:52.304Z,58.36
2023-02-09T02:37:52.254Z,58.56
2023-02-09T02:38:52.253Z,58.47
2023-02-09T02:39:52.234Z,58.56
2023-02-09T02:40:52.218Z,58.36
2023-02-09T02:41:52.195Z,58.36
2023-02-09T02:42:52.197Z,58.56
2023-02-09T02:43:52.203Z,58.67
2023-02-09T02:44:52.191Z,58.87
2023-02-09T02:45:52.155Z,58.67
2023-02-09T02:46:52.151Z,58.67
2023-02-09T02:47:52.136Z,58.76
2023-02-09T02:48:52.141Z,58.87
2023-02-09T02:49:52.142Z,58.47
2023-02-09T02:50:52.161Z,58.16
2023-02-09T02:51:52.154Z,58.47
2023-02-09T02:52:52.094Z,58.64
2023-02-09T02:53:52.068Z,58.23
2023-02-09T02:54:52.070Z,58.13
2023-02-09T02:55:52.049Z,57.93
2023-02-09T02:56:52.055Z,58.34
2023-02-09T02:57:52.026Z,58.13
2023-02-09T02:58:52.017Z,58.13
2023-02-09T02:59:52.016Z,58.03
2023-02-09T03:00:52.003Z,57.83
2023-02-09T03:01:52.088Z,57.42
2023-02-09T03:02:51.975Z,58.03
2023-02-09T03:03:51.961Z,57.83
2023-02-09T03:04:51.978Z,57.83
2023-02-09T03:05:51.936Z,57.93
2023-02-09T03:06:51.934Z,58.03
2023-02-09T03:07:51.915Z,57.73
2023-02-09T03:08:51.908Z,57.83
2023-02-09T03:09:51.920Z,57.12
2023-02-09T03:10:51.894Z,57.53
2023-02-09T03:11:51.901Z,57.62
2023-02-09T03:12:51.874Z,57.73
2023-02-09T03:13:51.851Z,57.12
2023-02-09T03:14:51.847Z,57.83
2023-02-09T03:15:51.869Z,57.83
2023-02-09T03:16:51.833Z,57.73
2023-02-09T03:17:51.810Z,57.73
2023-02-09T03:18:51.805Z,57.53
2023-02-09T03:19:51.786Z,57.83
2023-02-09T03:20:51.782Z,58.03
2023-02-09T03:21:51.787Z,58.34
2023-02-09T03:22:51.777Z,57.93
2023-02-09T03:23:51.743Z,58.23
2023-02-09T03:24:51.738Z,58.13
2023-02-09T03:25:51.721Z,58.03
2023-02-09T03:26:51.730Z,57.83
2023-02-09T03:27:51.808Z,57.93
2023-02-09T03:28:51.694Z,58.03
2023-02-09T03:29:51.690Z,58.03
2023-02-09T03:30:51.731Z,58.13
2023-02-09T03:31:51.693Z,57.93
2023-02-09T03:32:51.652Z,57.83
2023-02-09T03:33:51.651Z,57.83
2023-02-09T03:34:51.632Z,57.93
2023-02-09T03:35:51.616Z,57.93
2023-02-09T03:36:51.642Z,58.03
2023-02-09T03:37:51.602Z,58.03
2023-02-09T03:38:51.596Z,58.03
2023-02-09T03:39:51.577Z,58.03
2023-02-09T03:40:51.563Z,58.13
2023-02-09T03:41:51.580Z,58.03
2023-02-09T03:42:51.539Z,57.93
2023-02-09T03:43:51.531Z,57.83
2023-02-09T03:44:51.536Z,57.83
2023-02-09T03:45:51.516Z,57.93
2023-02-09T03:46:51.527Z,58.13
2023-02-09T03:47:51.482Z,57.93
2023-02-09T03:48:51.476Z,57.93
2023-02-09T03:49:51.469Z,58.03
2023-02-09T03:50:51.456Z,57.93
2023-02-09T03:51:51.441Z,57.93
2023-02-09T03:52:51.434Z,58.13
2023-02-09T03:53:51.421Z,58.13
2023-02-09T03:54:51.434Z,58.13
2023-02-09T03:55:51.398Z,58.13
2023-02-09T03:56:51.460Z,58.13
2023-02-09T03:57:51.384Z,58.23
2023-02-09T03:58:51.365Z,58.26
2023-02-09T03:59:51.371Z,58.23
2023-02-09T04:00:51.511Z,58.23
2023-02-09T04:01:51.333Z,58.26
2023-02-09T04:02:51.351Z,58.26
2023-02-09T04:03:51.314Z,58.36
2023-02-09T04:04:51.306Z,58.36
2023-02-09T04:05:51.290Z,58.26
2023-02-09T04:06:51.268Z,58.16
2023-02-09T04:07:51.265Z,58.16
2023-02-09T04:08:51.246Z,58.36
2023-02-09T04:09:51.239Z,58.26
2023-02-09T04:10:51.253Z,58.26
2023-02-09T04:11:51.227Z,58.16
2023-02-09T04:12:51.217Z,58.36
2023-02-09T04:13:51.196Z,58.26
2023-02-09T04:14:51.192Z,58.36
2023-02-09T04:15:51.232Z,58.26
2023-02-09T04:16:51.175Z,58.47
2023-02-09T04:17:51.163Z,58.26
2023-02-09T04:18:51.140Z,58.26
2023-02-09T04:19:51.140Z,58.26
2023-02-09T04:20:51.128Z,58.16
2023-02-09T04:21:51.103Z,58.36
2023-02-09T04:22:51.092Z,58.36
2023-02-09T04:23:51.099Z,58.36
2023-02-09T04:24:51.082Z,58.47
2023-02-09T04:25:51.093Z,58.36
2023-02-09T04:26:51.065Z,58.26
2023-02-09T04:27:51.081Z,57.96
2023-02-09T04:28:51.029Z,58.16
2023-02-09T04:29:51.045Z,57.75
2023-02-09T04:30:51.077Z,58.36
2023-02-09T04:31:51.077Z,57.75
2023-02-09T04:32:50.990Z,58.06
2023-02-09T04:33:50.981Z,58.16
2023-02-09T04:34:50.965Z,58.16
2023-02-09T04:35:51.006Z,58.26
2023-02-09T04:36:50.955Z,58.36
2023-02-09T04:37:50.938Z,58.47
2023-02-09T04:38:50.944Z,57.86
2023-02-09T04:39:50.914Z,57.96
2023-02-09T04:40:50.901Z,57.75
2023-02-09T04:41:50.907Z,57.55
2023-02-09T04:42:50.886Z,57.32
2023-02-09T04:43:50.888Z,57.53
2023-02-09T04:44:50.868Z,57.12
2023-02-09T04:45:50.911Z,56.92
2023-02-09T04:46:50.845Z,56.99
2023-02-09T04:47:50.856Z,56.48
2023-02-09T04:48:50.821Z,56.28
2023-02-09T04:49:50.810Z,56.36
2023-02-09T04:50:50.793Z,55.65
2023-02-09T04:51:50.789Z,55.55
2023-02-09T04:52:50.776Z,55.55
2023-02-09T04:53:50.778Z,55.55
2023-02-09T04:54:50.761Z,55.55
2023-02-09T04:55:50.742Z,55.44
2023-02-09T04:56:50.737Z,55.35
2023-02-09T04:57:50.734Z,55.85
2023-02-09T04:58:50.722Z,56.26
2023-02-09T04:59:50.718Z,55.95
2023-02-09T05:00:50.720Z,56.15
2023-02-09T05:01:50.681Z,56.28
2023-02-09T05:02:50.678Z,56.38
2023-02-09T05:03:50.732Z,56.28
2023-02-09T05:04:50.642Z,56.48
2023-02-09T05:05:50.647Z,56.38
2023-02-09T05:06:50.641Z,56.59
2023-02-09T05:07:50.633Z,56.99
2023-02-09T05:08:50.622Z,56.89
2023-02-09T05:09:50.592Z,56.89
2023-02-09T05:10:50.589Z,56.89
2023-02-09T05:11:50.600Z,56.99
2023-02-09T05:12:50.571Z,57.29
2023-02-09T05:13:50.550Z,56.89
2023-02-09T05:14:50.540Z,57.09
2023-02-09T05:15:50.539Z,56.99
2023-02-09T05:16:50.560Z,57.09
2023-02-09T05:17:50.509Z,56.89
2023-02-09T05:18:50.529Z,56.99
2023-02-09T05:19:50.512Z,57.29
2023-02-09T05:20:50.474Z,57.20
2023-02-09T05:21:50.474Z,57.20
2023-02-09T05:22:50.468Z,57.20
2023-02-09T05:23:50.449Z,57.09
2023-02-09T05:24:50.445Z,57.20
2023-02-09T05:25:50.499Z,57.20
2023-02-09T05:26:50.406Z,57.20
2023-02-09T05:27:50.533Z,57.09
2023-02-09T05:28:50.445Z,57.40
2023-02-09T05:29:50.385Z,57.42
2023-02-09T05:30:50.382Z,57.42
2023-02-09T05:31:50.433Z,57.73
2023-02-09T05:32:50.353Z,57.53
2023-02-09T05:33:50.346Z,57.53
2023-02-09T05:34:50.326Z,57.62
2023-02-09T05:35:50.321Z,57.53
2023-02-09T05:36:50.317Z,57.62
2023-02-09T05:37:50.301Z,57.62
2023-02-09T05:38:50.315Z,57.73
2023-02-09T05:39:50.287Z,57.62
2023-02-09T05:40:50.770Z,57.62
2023-02-09T05:41:50.258Z,57.73
2023-02-09T05:42:50.239Z,57.83
2023-02-09T05:43:50.234Z,57.83
2023-02-09T05:44:50.233Z,57.93
2023-02-09T05:45:50.283Z,57.93
2023-02-09T05:46:50.201Z,58.03
2023-02-09T05:47:50.187Z,57.93
2023-02-09T05:48:50.188Z,57.83
2023-02-09T05:49:50.195Z,58.03
2023-02-09T05:50:50.155Z,58.13
2023-02-09T05:51:50.148Z,57.93
2023-02-09T05:52:50.134Z,57.93
2023-02-09T05:53:50.128Z,57.93
2023-02-09T05:54:50.144Z,58.03
2023-02-09T05:55:50.128Z,58.13
2023-02-09T05:56:50.085Z,58.06
2023-02-09T05:57:50.087Z,58.06
2023-02-09T05:58:50.086Z,58.16
2023-02-09T05:59:50.103Z,58.26
2023-02-09T06:00:50.048Z,58.16
2023-02-09T06:01:50.043Z,58.16
2023-02-09T06:02:50.042Z,58.26
2023-02-09T06:03:50.098Z,58.26
2023-02-09T06:04:49.999Z,58.26
2023-02-09T06:05:50.004Z,58.36
2023-02-09T06:06:49.981Z,58.36
2023-02-09T06:07:49.980Z,58.36
2023-02-09T06:08:49.963Z,58.36
2023-02-09T06:09:49.945Z,58.56
2023-02-09T06:10:49.941Z,58.67
2023-02-09T06:11:49.946Z,58.56
2023-02-09T06:12:49.913Z,58.56
2023-02-09T06:13:49.914Z,58.56
2023-02-09T06:14:49.892Z,58.56
2023-02-09T06:15:49.941Z,58.56
2023-02-09T06:16:49.888Z,58.67
2023-02-09T06:17:49.871Z,58.47
2023-02-09T06:18:49.841Z,58.16
2023-02-09T06:19:49.838Z,57.45
2023-02-09T06:20:49.841Z,57.45
2023-02-09T06:21:50.108Z,57.55
2023-02-09T06:22:49.814Z,57.35
2023-02-09T06:23:49.788Z,57.12
2023-02-09T06:24:49.779Z,57.12
2023-02-09T06:25:49.726Z,56.71
2023-02-09T06:26:49.767Z,56.71
2023-02-09T06:27:49.754Z,56.08
2023-02-09T06:28:49.745Z,56.28
2023-02-09T06:29:49.742Z,56.28
2023-02-09T06:30:50.281Z,55.68
2023-02-09T06:31:49.862Z,55.57
2023-02-09T06:32:49.653Z,55.35
2023-02-09T06:33:49.627Z,55.44
2023-02-09T06:34:49.633Z,55.44
2023-02-09T06:35:52.220Z,55.35
2023-02-09T06:36:49.621Z,55.44
2023-02-09T06:37:49.604Z,55.55
2023-02-09T06:38:49.583Z,55.24
2023-02-09T06:39:49.561Z,55.44
2023-02-09T06:40:49.555Z,55.24
2023-02-09T06:41:49.541Z,55.55
2023-02-09T06:42:49.547Z,55.24
2023-02-09T06:43:49.522Z,55.65
2023-02-09T06:44:49.513Z,56.05
2023-02-09T06:45:49.624Z,55.55
2023-02-09T06:46:49.485Z,56.05
2023-02-09T06:47:49.493Z,56.15
2023-02-09T06:48:49.472Z,56.15
2023-02-09T06:49:49.457Z,56.18
2023-02-09T06:50:49.446Z,56.28
2023-02-09T06:51:49.457Z,56.59
2023-02-09T06:52:49.425Z,56.48
2023-02-09T06:53:49.460Z,56.59
2023-02-09T06:54:49.408Z,56.48
2023-02-09T06:55:49.414Z,56.28
2023-02-09T06:56:49.394Z,56.48
2023-02-09T06:57:49.390Z,56.69
2023-02-09T06:58:49.373Z,56.59
2023-02-09T06:59:49.368Z,56.89
2023-02-09T07:00:49.337Z,56.69
2023-02-09T07:01:49.406Z,57.02
2023-02-09T07:02:49.375Z,57.02
2023-02-09T07:03:49.316Z,57.22
2023-02-09T07:04:49.302Z,57.22
2023-02-09T07:05:49.280Z,57.32
2023-02-09T07:06:49.274Z,57.12
2023-02-09T07:07:49.270Z,57.12
2023-02-09T07:08:49.256Z,57.32
2023-02-09T07:09:49.245Z,57.42
2023-02-09T07:10:49.238Z,57.42
2023-02-09T07:11:49.224Z,57.53
2023-02-09T07:12:49.224Z,57.32
2023-02-09T07:13:49.205Z,57.53
2023-02-09T07:14:49.196Z,57.42
2023-02-09T07:15:49.230Z,57.42
2023-02-09T07:16:49.182Z,57.53
2023-02-09T07:17:49.157Z,57.32
2023-02-09T07:18:49.170Z,57.53
2023-02-09T07:19:49.142Z,57.42
2023-02-09T07:20:49.119Z,57.53
2023-02-09T07:21:49.136Z,57.62
2023-02-09T07:22:49.116Z,57.53
2023-02-09T07:23:49.093Z,57.62
2023-02-09T07:24:49.090Z,57.73
2023-02-09T07:25:49.079Z,57.53
2023-02-09T07:26:49.997Z,57.62
2023-02-09T07:27:49.049Z,57.62
2023-02-09T07:28:49.040Z,57.83
2023-02-09T07:29:49.057Z,57.73
2023-02-09T07:30:49.286Z,57.83
2023-02-09T07:31:49.126Z,57.83
2023-02-09T07:32:55.571Z,57.83
2023-02-09T07:33:49.006Z,57.83
2023-02-09T07:34:48.983Z,57.73
2023-02-09T07:35:48.989Z,57.73
2023-02-09T07:36:48.990Z,57.83
2023-02-09T07:37:48.941Z,57.73
2023-02-09T07:38:48.927Z,57.73
2023-02-09T07:39:48.922Z,57.93
2023-02-09T07:40:48.911Z,57.62
2023-02-09T07:41:48.936Z,57.93
2023-02-09T07:42:48.893Z,57.96
2023-02-09T07:43:48.912Z,57.86
2023-02-09T07:44:48.869Z,57.86
2023-02-09T07:45:48.855Z,57.75
2023-02-09T07:46:48.870Z,57.55
2023-02-09T07:47:48.840Z,57.75
2023-02-09T07:48:48.846Z,57.86
2023-02-09T07:49:48.817Z,57.86
2023-02-09T07:50:48.804Z,58.06
2023-02-09T07:51:48.794Z,58.06
2023-02-09T07:52:48.797Z,58.06
2023-02-09T07:53:48.879Z,58.06
2023-02-09T07:54:48.761Z,57.96
2023-02-09T07:55:48.858Z,57.96
2023-02-09T07:56:48.730Z,57.96
2023-02-09T07:57:48.739Z,57.86
2023-02-09T07:58:48.795Z,57.86
2023-02-09T07:59:48.729Z,57.65
2023-02-09T08:00:48.692Z,57.86
2023-02-09T08:01:48.750Z,57.86
2023-02-09T08:02:48.664Z,57.73
2023-02-09T08:03:48.655Z,57.42
2023-02-09T08:04:48.719Z,57.42
2023-02-09T08:05:48.966Z,57.12
2023-02-09T08:06:48.620Z,56.82
2023-02-09T08:07:48.620Z,57.12
2023-02-09T08:08:48.608Z,56.71
2023-02-09T08:09:48.605Z,56.08
2023-02-09T08:10:48.605Z,56.59
2023-02-09T08:11:48.606Z,55.98
2023-02-09T08:12:48.557Z,55.75
2023-02-09T08:13:48.544Z,55.75
2023-02-09T08:14:48.658Z,55.44
2023-02-09T08:15:48.923Z,55.04
2023-02-09T08:16:48.525Z,55.24
2023-02-09T08:17:48.505Z,54.82
2023-02-09T08:18:48.505Z,54.61
2023-02-09T08:19:48.486Z,54.71
2023-02-09T08:20:48.484Z,55.02
2023-02-09T08:21:48.468Z,54.61
2023-02-09T08:22:48.460Z,54.71
2023-02-09T08:23:48.435Z,54.61
2023-02-09T08:24:48.432Z,55.11
2023-02-09T08:25:48.791Z,55.11
2023-02-09T08:26:48.407Z,55.02
2023-02-09T08:27:48.415Z,54.91
2023-02-09T08:28:48.503Z,55.02
2023-02-09T08:29:49.122Z,55.22
2023-02-09T08:30:48.428Z,55.22
2023-02-09T08:31:48.473Z,55.11
2023-02-09T08:32:48.344Z,55.35
2023-02-09T08:33:48.372Z,55.65
2023-02-09T08:34:48.341Z,55.35
2023-02-09T08:35:48.670Z,55.55
2023-02-09T08:36:48.312Z,55.85
2023-02-09T08:37:48.290Z,56.05
2023-02-09T08:38:48.323Z,56.26
2023-02-09T08:39:48.270Z,55.95
2023-02-09T08:40:48.264Z,56.15
2023-02-09T08:41:48.259Z,56.36
2023-02-09T08:42:48.240Z,56.46
2023-02-09T08:43:48.244Z,56.26
2023-02-09T08:44:48.223Z,56.26
2023-02-09T08:45:48.893Z,56.26
2023-02-09T08:46:48.470Z,56.15
2023-02-09T08:47:48.192Z,56.56
2023-02-09T08:48:49.160Z,56.46
2023-02-09T08:49:48.182Z,56.36
2023-02-09T08:50:48.160Z,56.26
2023-02-09T08:51:48.143Z,56.69
2023-02-09T08:52:48.151Z,56.69
2023-02-09T08:53:48.704Z,56.59
2023-02-09T08:54:48.109Z,56.89
2023-02-09T08:55:48.608Z,56.79
2023-02-09T08:56:48.097Z,56.79
2023-02-09T08:57:48.088Z,56.79
2023-02-09T08:58:48.069Z,57.09
2023-02-09T08:59:48.050Z,57.20
2023-02-09T09:00:48.122Z,57.09
2023-02-09T09:01:48.027Z,56.89
2023-02-09T09:02:48.044Z,56.79
2023-02-09T09:03:48.175Z,56.89
2023-02-09T09:04:48.008Z,56.69
2023-02-09T09:05:48.273Z,56.99
2023-02-09T09:06:48.000Z,56.99
2023-02-09T09:07:47.965Z,56.89
2023-02-09T09:08:47.971Z,56.79
2023-02-09T09:09:47.954Z,56.99
2023-02-09T09:10:47.945Z,56.96
2023-02-09T09:11:47.933Z,56.99
2023-02-09T09:12:47.929Z,56.96
2023-02-09T09:13:47.915Z,56.96
2023-02-09T09:14:47.911Z,56.86
2023-02-09T09:15:48.294Z,57.07
2023-02-09T09:16:47.912Z,57.17
2023-02-09T09:17:47.884Z,57.17
2023-02-09T09:18:47.902Z,57.17
2023-02-09T09:19:47.854Z,57.27
2023-02-09T09:20:47.900Z,57.47
2023-02-09T09:21:47.819Z,57.47
2023-02-09T09:22:47.814Z,57.17
2023-02-09T09:23:47.812Z,57.27
2023-02-09T09:24:47.792Z,57.27
2023-02-09T09:25:48.183Z,57.37
2023-02-09T09:26:47.780Z,57.67
2023-02-09T09:27:47.773Z,57.57
2023-02-09T09:28:47.772Z,57.60
2023-02-09T09:29:47.774Z,57.50
2023-02-09T09:30:47.778Z,57.60
2023-02-09T09:31:47.789Z,57.60
2023-02-09T09:32:47.771Z,57.60
2023-02-09T09:33:47.761Z,57.70
2023-02-09T09:34:47.691Z,57.29
2023-02-09T09:35:47.985Z,57.09
2023-02-09T09:36:47.666Z,57.20
2023-02-09T09:37:47.655Z,57.20
2023-02-09T09:38:47.691Z,57.20
2023-02-09T09:39:47.627Z,57.20
2023-02-09T09:40:47.624Z,57.29
2023-02-09T09:41:47.645Z,57.20
2023-02-09T09:42:47.626Z,57.50
2023-02-09T09:43:47.622Z,57.40
2023-02-09T09:44:47.637Z,57.20
2023-02-09T09:45:48.012Z,57.29
2023-02-09T09:46:47.559Z,57.29
2023-02-09T09:47:47.544Z,57.29
2023-02-09T09:48:47.534Z,56.99
2023-02-09T09:49:47.520Z,57.09
2023-02-09T09:50:47.521Z,56.99
2023-02-09T09:51:47.508Z,56.59
2023-02-09T09:52:47.573Z,56.79
2023-02-09T09:53:47.558Z,56.89
2023-02-09T09:54:47.496Z,57.09
2023-02-09T09:55:47.913Z,56.79
2023-02-09T09:56:47.471Z,56.69
2023-02-09T09:57:47.430Z,56.05
2023-02-09T09:58:47.432Z,56.05
2023-02-09T09:59:47.424Z,56.05
2023-02-09T10:00:47.561Z,56.56
2023-02-09T10:01:47.422Z,56.56
2023-02-09T10:02:47.408Z,56.46
2023-02-09T10:03:47.416Z,56.66
2023-02-09T10:04:47.377Z,56.53
2023-02-09T10:05:47.747Z,56.43
2023-02-09T10:06:47.386Z,56.33
2023-02-09T10:07:47.336Z,56.23
2023-02-09T10:08:47.317Z,55.93
2023-02-09T10:09:47.311Z,55.82
2023-02-09T10:10:47.516Z,56.02
2023-02-09T10:11:47.315Z,55.93
2023-02-09T10:12:47.284Z,55.73
2023-02-09T10:13:47.265Z,55.82
2023-02-09T10:14:47.260Z,55.73
2023-02-09T10:15:47.505Z,55.73
2023-02-09T10:16:47.303Z,55.42
2023-02-09T10:17:47.228Z,55.42
2023-02-09T10:18:47.211Z,55.42
2023-02-09T10:19:47.202Z,55.82
2023-02-09T10:20:47.208Z,55.52
2023-02-09T10:21:47.180Z,55.62
2023-02-09T10:22:47.228Z,55.82
2023-02-09T10:23:47.161Z,55.82
2023-02-09T10:24:47.154Z,56.13
2023-02-09T10:25:47.485Z,56.02
2023-02-09T10:26:47.133Z,56.33
2023-02-09T10:27:47.118Z,56.23
2023-02-09T10:28:47.687Z,56.33
2023-02-09T10:29:47.093Z,56.33
2023-02-09T10:30:47.166Z,56.13
2023-02-09T10:31:47.257Z,56.26
2023-02-09T10:32:47.080Z,56.36
2023-02-09T10:33:47.104Z,56.53
2023-02-09T10:34:47.055Z,56.56
2023-02-09T10:35:47.332Z,56.56
2023-02-09T10:36:47.024Z,56.53
2023-02-09T10:37:47.009Z,56.53
2023-02-09T10:38:46.991Z,56.53
2023-02-09T10:39:46.979Z,56.33
2023-02-09T10:40:47.030Z,56.53
2023-02-09T10:41:46.968Z,56.53
2023-02-09T10:42:46.967Z,56.53
2023-02-09T10:43:47.036Z,56.33
2023-02-09T10:44:46.942Z,56.53
2023-02-09T10:45:47.305Z,56.53
2023-02-09T10:46:46.904Z,56.43
2023-02-09T10:47:46.903Z,56.33
2023-02-09T10:48:46.885Z,56.23
2023-02-09T10:49:46.906Z,56.23
2023-02-09T10:50:46.878Z,56.33
2023-02-09T10:51:46.847Z,56.23
2023-02-09T10:52:46.852Z,56.13
2023-02-09T10:53:46.885Z,56.56
2023-02-09T10:54:46.831Z,56.53
2023-02-09T10:55:47.125Z,56.43
2023-02-09T10:56:46.839Z,56.46
2023-02-09T10:57:46.801Z,56.46
2023-02-09T10:58:46.776Z,56.46
2023-02-09T10:59:46.776Z,56.46
2023-02-09T11:00:46.775Z,56.56
2023-02-09T11:01:46.784Z,56.66
2023-02-09T11:02:46.752Z,56.56
2023-02-09T11:03:46.729Z,56.46
2023-02-09T11:04:46.807Z,56.66
2023-02-09T11:05:47.138Z,56.56
2023-02-09T11:06:46.691Z,56.66
2023-02-09T11:07:46.704Z,56.66
2023-02-09T11:08:46.682Z,56.66
2023-02-09T11:09:46.667Z,56.66
2023-02-09T11:10:46.656Z,56.56
2023-02-09T11:11:46.650Z,56.46
2023-02-09T11:12:46.643Z,56.66
2023-02-09T11:13:46.624Z,56.66
2023-02-09T11:14:46.609Z,56.66
2023-02-09T11:15:46.985Z,56.66
2023-02-09T11:16:46.603Z,56.56
2023-02-09T11:17:46.586Z,56.56
2023-02-09T11:18:46.583Z,56.76
2023-02-09T11:19:46.553Z,56.66
2023-02-09T11:20:46.563Z,56.56
2023-02-09T11:21:46.535Z,56.66
2023-02-09T11:22:46.524Z,56.56
2023-02-09T11:23:46.523Z,56.46
2023-02-09T11:24:46.508Z,56.56
2023-02-09T11:25:46.829Z,56.46
2023-02-09T11:26:46.492Z,56.46
2023-02-09T11:27:46.484Z,56.46
2023-02-09T11:28:47.197Z,56.76
2023-02-09T11:29:46.462Z,56.66
2023-02-09T11:30:46.920Z,56.76
2023-02-09T11:31:46.679Z,56.86
2023-02-09T11:32:46.438Z,56.76
2023-02-09T11:33:46.483Z,56.76
2023-02-09T11:34:46.421Z,56.56
2023-02-09T11:35:46.387Z,56.56
2023-02-09T11:36:46.374Z,56.66
2023-02-09T11:37:46.367Z,56.56
2023-02-09T11:38:46.361Z,56.56
2023-02-09T11:39:46.343Z,56.56
2023-02-09T11:40:46.644Z,56.66
2023-02-09T11:41:46.326Z,56.66
2023-02-09T11:42:46.407Z,56.46
2023-02-09T11:43:46.301Z,56.56
2023-02-09T11:44:46.308Z,56.43
2023-02-09T11:45:46.283Z,56.33
2023-02-09T11:46:46.353Z,56.23
2023-02-09T11:47:46.258Z,56.13
2023-02-09T11:48:46.288Z,56.02
2023-02-09T11:49:46.233Z,55.80
2023-02-09T11:50:46.690Z,55.69
2023-02-09T11:51:46.219Z,55.60
2023-02-09T11:52:46.212Z,55.49
2023-02-09T11:53:46.248Z,55.40
2023-02-09T11:54:46.179Z,55.29
2023-02-09T11:55:46.175Z,55.19
2023-02-09T11:56:46.238Z,55.07
2023-02-09T11:57:46.153Z,54.86
2023-02-09T11:58:46.157Z,54.76
2023-02-09T11:59:46.145Z,54.76
2023-02-09T12:00:56.011Z,54.66
2023-02-09T12:01:46.128Z,54.56
2023-02-09T12:02:46.242Z,54.46
2023-02-09T12:03:46.101Z,54.36
2023-02-09T12:04:46.078Z,54.16
2023-02-09T12:05:46.065Z,54.16
2023-02-09T12:06:46.136Z,54.05
2023-02-09T12:07:46.040Z,53.85
2023-02-09T12:08:46.129Z,53.65
2023-02-09T12:09:46.067Z,53.78
2023-02-09T12:10:46.354Z,53.67
2023-02-09T12:11:46.007Z,53.27
2023-02-09T12:12:46.033Z,52.97
2023-02-09T12:13:46.014Z,52.97
2023-02-09T12:14:46.029Z,52.76
2023-02-09T12:15:46.055Z,53.27
2023-02-09T12:16:45.943Z,53.58
2023-02-09T12:17:46.026Z,53.58
2023-02-09T12:18:45.944Z,53.38
2023-02-09T12:19:45.919Z,53.80
2023-02-09T12:20:46.228Z,53.90
2023-02-09T12:21:45.889Z,54.00
2023-02-09T12:22:45.952Z,54.21
2023-02-09T12:23:45.919Z,54.11
2023-02-09T12:24:45.864Z,54.11
2023-02-09T12:25:45.896Z,54.31
2023-02-09T12:26:45.837Z,54.31
2023-02-09T12:27:45.879Z,54.31
2023-02-09T12:28:46.712Z,54.31
2023-02-09T12:29:45.843Z,54.41
2023-02-09T12:30:46.089Z,54.61
2023-02-09T12:31:46.457Z,54.61
2023-02-09T12:32:45.787Z,54.61
2023-02-09T12:33:45.827Z,54.61
2023-02-09T12:34:45.767Z,54.61
2023-02-09T12:35:45.756Z,54.91
2023-02-09T12:36:45.742Z,55.02
2023-02-09T12:37:45.733Z,55.11
2023-02-09T12:38:49.546Z,55.02
2023-02-09T12:39:45.826Z,54.71
2023-02-09T12:40:46.030Z,54.82
2023-02-09T12:41:45.672Z,55.11
2023-02-09T12:42:45.668Z,55.11
2023-02-09T12:43:45.715Z,54.91
2023-02-09T12:44:45.653Z,54.82
2023-02-09T12:45:46.132Z,54.71
2023-02-09T12:46:45.653Z,54.71
2023-02-09T12:47:45.662Z,54.71
2023-02-09T12:48:45.609Z,54.71
2023-02-09T12:49:45.601Z,54.71
2023-02-09T12:50:45.574Z,54.71
2023-02-09T12:51:45.583Z,54.71
2023-02-09T12:52:45.561Z,54.61